sensor_id;sensor_type;location;lat;lon;timestamp;pressure;altitude;pressure_sealevel;temperature;humidity
59154;BME280;44935;48.944;9.418;2022-12-26T00:01:07;98636.85;;;10.08;51.75
59154;BME280;44935;48.944;9.418;2022-12-26T00:03:35;98635.73;;;10.53;50.85
59154;BME280;44935;48.944;9.418;2022-12-26T00:06:03;98636.82;;;10.65;51.06
59154;BME280;44935;48.944;9.418;2022-12-26T00:08:30;98645.57;;;11.32;49.71
59154;BME280;44935;48.944;9.418;2022-12-26T00:10:57;98647.45;;;11.30;49.30
59154;BME280;44935;48.944;9.418;2022-12-26T00:13:24;98646.53;;;11.77;48.77
59154;BME280;44935;48.944;9.418;2022-12-26T00:15:51;98640.65;;;9.84;51.65
59154;BME280;44935;48.944;9.418;2022-12-26T00:18:18;98645.29;;;9.02;53.51
59154;BME280;44935;48.944;9.418;2022-12-26T00:20:45;98652.41;;;11.06;49.77
59154;BME280;44935;48.944;9.418;2022-12-26T00:23:11;98654.57;;;11.71;48.79
59154;BME280;44935;48.944;9.418;2022-12-26T00:25:38;98656.95;;;9.83;52.48
59154;BME280;44935;48.944;9.418;2022-12-26T00:28:06;98660.75;;;7.33;56.74
59154;BME280;44935;48.944;9.418;2022-12-26T00:30:33;98662.55;;;6.15;60.71
59154;BME280;44935;48.944;9.418;2022-12-26T00:33:03;98656.13;;;5.34;62.56
59154;BME280;44935;48.944;9.418;2022-12-26T00:35:30;98662.05;;;6.11;61.85
59154;BME280;44935;48.944;9.418;2022-12-26T00:37:56;98657.81;;;4.65;65.70
59154;BME280;44935;48.944;9.418;2022-12-26T00:40:23;98659.69;;;4.81;65.97
59154;BME280;44935;48.944;9.418;2022-12-26T00:42:51;98661.69;;;4.87;66.17
59154;BME280;44935;48.944;9.418;2022-12-26T00:45:18;98660.42;;;5.12;66.11
59154;BME280;44935;48.944;9.418;2022-12-26T00:47:45;98659.60;;;4.79;65.99
59154;BME280;44935;48.944;9.418;2022-12-26T00:50:12;98661.70;;;4.54;67.59
59154;BME280;44935;48.944;9.418;2022-12-26T00:52:39;98657.17;;;5.19;65.60
59154;BME280;44935;48.944;9.418;2022-12-26T00:55:07;98653.59;;;4.59;66.27
59154;BME280;44935;48.944;9.418;2022-12-26T00:57:35;98654.57;;;4.94;66.11
59154;BME280;44935;48.944;9.418;2022-12-26T01:00:03;98647.75;;;5.36;65.15
59154;BME280;44935;48.944;9.418;2022-12-26T01:02:30;98651.26;;;6.29;62.70
59154;BME280;44935;48.944;9.418;2022-12-26T01:04:57;98656.39;;;8.51;57.23
59154;BME280;44935;48.944;9.418;2022-12-26T01:07:24;98656.43;;;9.56;54.11
59154;BME280;44935;48.944;9.418;2022-12-26T01:09:51;98658.81;;;9.21;55.45
59154;BME280;44935;48.944;9.418;2022-12-26T01:12:18;98652.94;;;9.12;55.69
59154;BME280;44935;48.944;9.418;2022-12-26T01:14:45;98650.03;;;9.30;53.71
59154;BME280;44935;48.944;9.418;2022-12-26T01:17:12;98649.58;;;9.10;53.96
59154;BME280;44935;48.944;9.418;2022-12-26T01:19:39;98641.54;;;10.95;50.20
59154;BME280;44935;48.944;9.418;2022-12-26T01:22:05;98644.97;;;10.96;50.64
59154;BME280;44935;48.944;9.418;2022-12-26T01:24:32;98642.53;;;11.19;49.33
59154;BME280;44935;48.944;9.418;2022-12-26T01:26:59;98649.79;;;11.43;49.53
59154;BME280;44935;48.944;9.418;2022-12-26T01:29:26;98648.52;;;11.25;49.39
59154;BME280;44935;48.944;9.418;2022-12-26T01:31:53;98655.15;;;11.34;49.08
59154;BME280;44935;48.944;9.418;2022-12-26T01:34:20;98652.73;;;10.17;51.08
59154;BME280;44935;48.944;9.418;2022-12-26T01:36:47;98658.26;;;11.17;49.42
59154;BME280;44935;48.944;9.418;2022-12-26T01:39:15;98653.04;;;10.16;50.14
59154;BME280;44935;48.944;9.418;2022-12-26T01:41:42;98656.50;;;9.55;52.70
59154;BME280;44935;48.944;9.418;2022-12-26T01:44:57;98659.28;;;9.41;52.16
59154;BME280;44935;48.944;9.418;2022-12-26T01:47:36;98659.88;;;7.00;57.35
59154;BME280;44935;48.944;9.418;2022-12-26T01:50:13;98662.82;;;6.14;60.39
59154;BME280;44935;48.944;9.418;2022-12-26T01:52:46;98662.95;;;5.83;61.84
59154;BME280;44935;48.944;9.418;2022-12-26T01:55:16;98672.68;;;6.16;61.32
59154;BME280;44935;48.944;9.418;2022-12-26T01:57:49;98671.30;;;6.01;60.64
59154;BME280;44935;48.944;9.418;2022-12-26T02:00:20;98661.86;;;4.69;64.94
59154;BME280;44935;48.944;9.418;2022-12-26T02:02:46;98664.37;;;5.37;64.09
59154;BME280;44935;48.944;9.418;2022-12-26T02:05:14;98660.59;;;5.14;64.00
59154;BME280;44935;48.944;9.418;2022-12-26T02:07:43;98659.91;;;5.21;63.36
59154;BME280;44935;48.944;9.418;2022-12-26T02:10:14;98666.61;;;4.93;64.16
59154;BME280;44935;48.944;9.418;2022-12-26T02:12:44;98662.79;;;5.62;62.69
59154;BME280;44935;48.944;9.418;2022-12-26T02:15:14;98663.62;;;5.00;64.40
59154;BME280;44935;48.944;9.418;2022-12-26T02:17:43;98663.90;;;5.76;62.84
59154;BME280;44935;48.944;9.418;2022-12-26T02:20:16;98660.20;;;5.25;63.44
59154;BME280;44935;48.944;9.418;2022-12-26T02:25:15;98659.06;;;5.89;63.91
59154;BME280;44935;48.944;9.418;2022-12-26T02:28:17;98655.35;;;4.52;66.28
59154;BME280;44935;48.944;9.418;2022-12-26T02:30:57;98652.68;;;4.74;66.83
59154;BME280;44935;48.944;9.418;2022-12-26T02:33:38;98652.74;;;4.91;65.90
59154;BME280;44935;48.944;9.418;2022-12-26T02:36:18;98664.54;;;4.95;66.60
59154;BME280;44935;48.944;9.418;2022-12-26T02:39:02;98664.81;;;4.94;65.58
59154;BME280;44935;48.944;9.418;2022-12-26T02:41:41;98666.13;;;4.56;67.61
59154;BME280;44935;48.944;9.418;2022-12-26T02:44:17;98659.81;;;4.55;67.39
59154;BME280;44935;48.944;9.418;2022-12-26T02:46:49;98669.02;;;4.58;66.87
59154;BME280;44935;48.944;9.418;2022-12-26T02:49:26;98673.11;;;6.17;62.44
59154;BME280;44935;48.944;9.418;2022-12-26T02:51:59;98685.48;;;5.63;63.75
59154;BME280;44935;48.944;9.418;2022-12-26T02:54:36;98681.86;;;5.32;64.42
59154;BME280;44935;48.944;9.418;2022-12-26T02:57:07;98672.64;;;5.09;65.75
59154;BME280;44935;48.944;9.418;2022-12-26T02:59:44;98672.97;;;5.41;64.64
59154;BME280;44935;48.944;9.418;2022-12-26T03:02:21;98670.57;;;5.20;65.39
59154;BME280;44935;48.944;9.418;2022-12-26T03:04:52;98683.71;;;5.57;64.50
59154;BME280;44935;48.944;9.418;2022-12-26T03:07:24;98678.83;;;5.62;64.12
59154;BME280;44935;48.944;9.418;2022-12-26T03:09:52;98680.38;;;4.87;65.99
59154;BME280;44935;48.944;9.418;2022-12-26T03:12:31;98683.79;;;5.28;65.26
59154;BME280;44935;48.944;9.418;2022-12-26T03:15:02;98684.45;;;5.22;63.92
59154;BME280;44935;48.944;9.418;2022-12-26T03:17:34;98682.19;;;5.29;64.55
59154;BME280;44935;48.944;9.418;2022-12-26T03:20:09;98674.77;;;5.80;63.56
59154;BME280;44935;48.944;9.418;2022-12-26T03:22:40;98670.74;;;5.32;63.85
59154;BME280;44935;48.944;9.418;2022-12-26T03:25:11;98664.34;;;5.41;63.82
59154;BME280;44935;48.944;9.418;2022-12-26T03:27:39;98661.05;;;5.47;64.68
59154;BME280;44935;48.944;9.418;2022-12-26T03:30:08;98657.06;;;5.67;63.58
59154;BME280;44935;48.944;9.418;2022-12-26T03:32:41;98665.29;;;8.03;58.27
59154;BME280;44935;48.944;9.418;2022-12-26T03:35:11;98657.10;;;8.28;56.69
59154;BME280;44935;48.944;9.418;2022-12-26T03:37:44;98656.15;;;10.27;53.00
59154;BME280;44935;48.944;9.418;2022-12-26T03:40:26;98651.68;;;9.56;54.45
59154;BME280;44935;48.944;9.418;2022-12-26T03:43:04;98642.86;;;10.61;51.60
59154;BME280;44935;48.944;9.418;2022-12-26T03:45:41;98638.54;;;10.34;50.87
59154;BME280;44935;48.944;9.418;2022-12-26T03:48:17;98646.83;;;10.10;51.02
59154;BME280;44935;48.944;9.418;2022-12-26T03:50:49;98646.56;;;9.69;51.82
59154;BME280;44935;48.944;9.418;2022-12-26T03:53:22;98655.10;;;10.40;50.79
59154;BME280;44935;48.944;9.418;2022-12-26T03:55:54;98657.26;;;11.09;49.97
59154;BME280;44935;48.944;9.418;2022-12-26T03:58:25;98656.70;;;11.38;49.66
59154;BME280;44935;48.944;9.418;2022-12-26T04:00:55;98660.29;;;11.26;49.35
59154;BME280;44935;48.944;9.418;2022-12-26T04:03:24;98654.13;;;12.04;47.77
59154;BME280;44935;48.944;9.418;2022-12-26T04:05:56;98652.45;;;12.09;46.60
59154;BME280;44935;48.944;9.418;2022-12-26T04:08:29;98650.56;;;11.77;47.96
59154;BME280;44935;48.944;9.418;2022-12-26T04:11:00;98649.43;;;10.84;48.96
59154;BME280;44935;48.944;9.418;2022-12-26T04:13:29;98651.80;;;10.95;49.02
59154;BME280;44935;48.944;9.418;2022-12-26T04:16:01;98654.50;;;11.25;49.14
59154;BME280;44935;48.944;9.418;2022-12-26T04:18:35;98656.99;;;11.29;48.82
59154;BME280;44935;48.944;9.418;2022-12-26T04:21:12;98661.20;;;11.38;48.32
59154;BME280;44935;48.944;9.418;2022-12-26T04:23:43;98666.01;;;11.70;47.87
59154;BME280;44935;48.944;9.418;2022-12-26T04:26:14;98671.31;;;12.13;47.46
59154;BME280;44935;48.944;9.418;2022-12-26T04:28:43;98673.75;;;12.02;48.00
59154;BME280;44935;48.944;9.418;2022-12-26T04:31:13;98671.64;;;13.00;46.84
59154;BME280;44935;48.944;9.418;2022-12-26T04:33:45;98672.85;;;12.68;45.23
59154;BME280;44935;48.944;9.418;2022-12-26T04:36:21;98676.74;;;12.92;45.47
59154;BME280;44935;48.944;9.418;2022-12-26T04:38:54;98671.98;;;13.29;45.64
59154;BME280;44935;48.944;9.418;2022-12-26T04:41:24;98664.70;;;11.89;47.95
59154;BME280;44935;48.944;9.418;2022-12-26T04:43:54;98666.46;;;11.14;49.57
59154;BME280;44935;48.944;9.418;2022-12-26T04:46:24;98666.86;;;13.14;46.57
59154;BME280;44935;48.944;9.418;2022-12-26T04:48:52;98669.59;;;13.46;45.33
59154;BME280;44935;48.944;9.418;2022-12-26T04:51:20;98667.48;;;13.29;44.73
59154;BME280;44935;48.944;9.418;2022-12-26T04:53:47;98670.41;;;12.69;46.05
59154;BME280;44935;48.944;9.418;2022-12-26T04:56:14;98664.74;;;12.90;45.13
59154;BME280;44935;48.944;9.418;2022-12-26T04:58:41;98667.13;;;12.92;45.22
59154;BME280;44935;48.944;9.418;2022-12-26T05:01:08;98660.32;;;12.34;44.91
59154;BME280;44935;48.944;9.418;2022-12-26T05:03:35;98655.36;;;12.37;45.87
59154;BME280;44935;48.944;9.418;2022-12-26T05:06:02;98648.27;;;12.46;45.32
59154;BME280;44935;48.944;9.418;2022-12-26T05:08:33;98649.79;;;12.14;45.93
59154;BME280;44935;48.944;9.418;2022-12-26T05:11:00;98646.45;;;12.19;46.25
59154;BME280;44935;48.944;9.418;2022-12-26T05:13:27;98656.00;;;12.36;46.52
59154;BME280;44935;48.944;9.418;2022-12-26T05:15:53;98657.06;;;12.03;46.97
59154;BME280;44935;48.944;9.418;2022-12-26T05:18:20;98663.99;;;11.99;47.65
59154;BME280;44935;48.944;9.418;2022-12-26T05:20:47;98674.12;;;11.99;47.40
59154;BME280;44935;48.944;9.418;2022-12-26T05:23:17;98672.88;;;11.45;48.92
59154;BME280;44935;48.944;9.418;2022-12-26T05:25:46;98658.62;;;11.69;47.76
59154;BME280;44935;48.944;9.418;2022-12-26T05:28:15;98659.72;;;11.96;47.17
59154;BME280;44935;48.944;9.418;2022-12-26T05:30:42;98664.57;;;12.07;46.82
59154;BME280;44935;48.944;9.418;2022-12-26T05:33:09;98663.01;;;12.46;46.88
59154;BME280;44935;48.944;9.418;2022-12-26T05:35:36;98660.02;;;12.27;45.88
59154;BME280;44935;48.944;9.418;2022-12-26T05:38:04;98656.99;;;12.55;45.39
59154;BME280;44935;48.944;9.418;2022-12-26T05:40:31;98653.55;;;12.78;45.28
59154;BME280;44935;48.944;9.418;2022-12-26T05:42:59;98653.43;;;12.47;45.27
59154;BME280;44935;48.944;9.418;2022-12-26T05:45:25;98661.55;;;12.27;46.04
59154;BME280;44935;48.944;9.418;2022-12-26T05:47:57;98663.01;;;11.89;46.94
59154;BME280;44935;48.944;9.418;2022-12-26T05:50:24;98661.66;;;11.37;47.72
59154;BME280;44935;48.944;9.418;2022-12-26T05:52:51;98669.65;;;11.55;47.88
59154;BME280;44935;48.944;9.418;2022-12-26T05:55:18;98670.74;;;11.64;48.48
59154;BME280;44935;48.944;9.418;2022-12-26T05:57:45;98673.96;;;11.44;49.20
59154;BME280;44935;48.944;9.418;2022-12-26T06:00:13;98675.89;;;11.39;48.87
59154;BME280;44935;48.944;9.418;2022-12-26T06:02:41;98675.74;;;10.98;49.51
59154;BME280;44935;48.944;9.418;2022-12-26T06:05:08;98669.77;;;10.89;49.27
59154;BME280;44935;48.944;9.418;2022-12-26T06:07:36;98666.41;;;11.18;49.55
59154;BME280;44935;48.944;9.418;2022-12-26T06:10:03;98664.84;;;11.01;49.69
59154;BME280;44935;48.944;9.418;2022-12-26T06:12:30;98670.49;;;11.04;49.86
59154;BME280;44935;48.944;9.418;2022-12-26T06:14:57;98673.41;;;10.74;50.48
59154;BME280;44935;48.944;9.418;2022-12-26T06:17:24;98674.79;;;10.67;50.75
59154;BME280;44935;48.944;9.418;2022-12-26T06:19:51;98674.13;;;10.48;50.97
59154;BME280;44935;48.944;9.418;2022-12-26T06:22:18;98678.91;;;10.31;51.98
59154;BME280;44935;48.944;9.418;2022-12-26T06:24:45;98677.75;;;10.40;51.65
59154;BME280;44935;48.944;9.418;2022-12-26T06:27:12;98677.64;;;10.80;50.56
59154;BME280;44935;48.944;9.418;2022-12-26T06:29:39;98677.49;;;10.12;51.38
59154;BME280;44935;48.944;9.418;2022-12-26T06:32:06;98682.01;;;10.88;49.86
59154;BME280;44935;48.944;9.418;2022-12-26T06:34:33;98675.58;;;11.01;49.76
59154;BME280;44935;48.944;9.418;2022-12-26T06:37:00;98682.09;;;11.09;49.26
59154;BME280;44935;48.944;9.418;2022-12-26T06:39:27;98688.40;;;11.49;48.23
59154;BME280;44935;48.944;9.418;2022-12-26T06:41:54;98689.03;;;11.69;48.32
59154;BME280;44935;48.944;9.418;2022-12-26T06:44:20;98686.77;;;11.55;48.18
59154;BME280;44935;48.944;9.418;2022-12-26T06:46:47;98682.79;;;11.55;47.82
59154;BME280;44935;48.944;9.418;2022-12-26T06:49:14;98681.40;;;11.72;47.19
59154;BME280;44935;48.944;9.418;2022-12-26T06:51:41;98681.16;;;12.04;47.09
59154;BME280;44935;48.944;9.418;2022-12-26T06:54:08;98676.13;;;12.45;45.77
59154;BME280;44935;48.944;9.418;2022-12-26T06:56:36;98672.34;;;12.82;45.24
59154;BME280;44935;48.944;9.418;2022-12-26T06:59:05;98671.63;;;13.27;43.43
59154;BME280;44935;48.944;9.418;2022-12-26T07:01:33;98674.23;;;13.15;43.91
59154;BME280;44935;48.944;9.418;2022-12-26T07:04:01;98675.99;;;12.63;45.22
59154;BME280;44935;48.944;9.418;2022-12-26T07:06:30;98681.37;;;13.03;44.41
59154;BME280;44935;48.944;9.418;2022-12-26T07:08:59;98683.39;;;13.44;44.22
59154;BME280;44935;48.944;9.418;2022-12-26T07:11:29;98687.75;;;13.15;45.43
59154;BME280;44935;48.944;9.418;2022-12-26T07:13:56;98685.60;;;13.17;43.91
59154;BME280;44935;48.944;9.418;2022-12-26T07:16:24;98688.05;;;13.54;42.90
59154;BME280;44935;48.944;9.418;2022-12-26T07:18:52;98693.66;;;13.48;43.28
59154;BME280;44935;48.944;9.418;2022-12-26T07:21:19;98690.92;;;13.13;43.67
59154;BME280;44935;48.944;9.418;2022-12-26T07:23:46;98687.38;;;13.27;43.62
59154;BME280;44935;48.944;9.418;2022-12-26T07:26:14;98689.86;;;13.00;43.59
59154;BME280;44935;48.944;9.418;2022-12-26T07:28:40;98698.52;;;12.54;45.27
59154;BME280;44935;48.944;9.418;2022-12-26T07:31:08;98687.61;;;12.75;45.92
59154;BME280;44935;48.944;9.418;2022-12-26T07:33:36;98689.54;;;13.31;45.67
59154;BME280;44935;48.944;9.418;2022-12-26T07:36:05;98687.94;;;13.11;45.28
59154;BME280;44935;48.944;9.418;2022-12-26T07:38:32;98688.99;;;13.90;43.72
59154;BME280;44935;48.944;9.418;2022-12-26T07:41:00;98686.01;;;14.13;44.26
59154;BME280;44935;48.944;9.418;2022-12-26T07:43:27;98685.47;;;13.70;44.09
59154;BME280;44935;48.944;9.418;2022-12-26T07:45:56;98689.80;;;13.70;44.16
59154;BME280;44935;48.944;9.418;2022-12-26T07:48:24;98695.11;;;13.06;45.57
59154;BME280;44935;48.944;9.418;2022-12-26T07:50:52;98694.03;;;12.93;44.82
59154;BME280;44935;48.944;9.418;2022-12-26T07:53:18;98697.02;;;13.08;44.91
59154;BME280;44935;48.944;9.418;2022-12-26T07:55:45;98703.50;;;12.52;45.55
59154;BME280;44935;48.944;9.418;2022-12-26T07:58:12;98714.39;;;12.61;46.05
59154;BME280;44935;48.944;9.418;2022-12-26T08:00:39;98702.48;;;12.89;45.61
59154;BME280;44935;48.944;9.418;2022-12-26T08:03:08;98701.20;;;13.06;46.42
59154;BME280;44935;48.944;9.418;2022-12-26T08:05:36;98703.65;;;13.63;45.19
59154;BME280;44935;48.944;9.418;2022-12-26T08:08:02;98703.20;;;14.05;44.57
59154;BME280;44935;48.944;9.418;2022-12-26T08:10:30;98702.74;;;13.92;45.03
59154;BME280;44935;48.944;9.418;2022-12-26T08:12:58;98704.61;;;13.57;45.09
59154;BME280;44935;48.944;9.418;2022-12-26T08:15:25;98702.52;;;13.66;44.72
59154;BME280;44935;48.944;9.418;2022-12-26T08:17:52;98699.28;;;14.03;44.35
59154;BME280;44935;48.944;9.418;2022-12-26T08:20:19;98705.82;;;14.20;44.75
59154;BME280;44935;48.944;9.418;2022-12-26T08:22:46;98705.42;;;13.65;43.70
59154;BME280;44935;48.944;9.418;2022-12-26T08:25:14;98702.82;;;13.33;46.00
59154;BME280;44935;48.944;9.418;2022-12-26T08:27:41;98705.28;;;12.11;47.58
59154;BME280;44935;48.944;9.418;2022-12-26T08:30:09;98713.67;;;11.85;48.75
59154;BME280;44935;48.944;9.418;2022-12-26T08:32:36;98720.84;;;13.36;46.12
59154;BME280;44935;48.944;9.418;2022-12-26T08:35:04;98725.65;;;10.98;50.42
59154;BME280;44935;48.944;9.418;2022-12-26T08:37:32;98719.30;;;12.89;47.19
59154;BME280;44935;48.944;9.418;2022-12-26T08:40:00;98719.13;;;12.72;48.06
59154;BME280;44935;48.944;9.418;2022-12-26T08:42:27;98723.15;;;10.20;52.61
59154;BME280;44935;48.944;9.418;2022-12-26T08:44:55;98734.77;;;10.68;52.73
59154;BME280;44935;48.944;9.418;2022-12-26T08:47:21;98743.25;;;12.87;48.13
59154;BME280;44935;48.944;9.418;2022-12-26T08:49:48;98744.70;;;13.89;46.22
59154;BME280;44935;48.944;9.418;2022-12-26T08:52:15;98751.73;;;13.89;46.30
59154;BME280;44935;48.944;9.418;2022-12-26T08:54:42;98753.09;;;14.01;44.55
59154;BME280;44935;48.944;9.418;2022-12-26T08:57:11;98759.64;;;12.94;46.16
59154;BME280;44935;48.944;9.418;2022-12-26T08:59:38;98775.49;;;12.62;48.27
59154;BME280;44935;48.944;9.418;2022-12-26T09:02:05;98784.26;;;12.26;47.95
59154;BME280;44935;48.944;9.418;2022-12-26T09:04:32;98793.62;;;11.49;49.80
59154;BME280;44935;48.944;9.418;2022-12-26T09:07:00;98799.31;;;11.16;52.14
59154;BME280;44935;48.944;9.418;2022-12-26T09:09:28;98808.35;;;11.54;52.58
59154;BME280;44935;48.944;9.418;2022-12-26T09:11:56;98828.16;;;10.57;54.85
59154;BME280;44935;48.944;9.418;2022-12-26T09:14:24;98830.74;;;9.96;56.61
59154;BME280;44935;48.944;9.418;2022-12-26T09:16:53;98839.11;;;9.64;59.20
59154;BME280;44935;48.944;9.418;2022-12-26T09:19:21;98850.72;;;9.10;60.52
59154;BME280;44935;48.944;9.418;2022-12-26T09:21:49;98855.01;;;9.84;59.12
59154;BME280;44935;48.944;9.418;2022-12-26T09:24:17;98856.64;;;9.96;58.79
59154;BME280;44935;48.944;9.418;2022-12-26T09:26:44;98861.45;;;10.56;57.34
59154;BME280;44935;48.944;9.418;2022-12-26T09:29:12;98865.91;;;11.45;55.79
59154;BME280;44935;48.944;9.418;2022-12-26T09:31:39;98872.72;;;11.19;56.07
59154;BME280;44935;48.944;9.418;2022-12-26T09:34:07;98865.35;;;11.78;55.61
59154;BME280;44935;48.944;9.418;2022-12-26T09:36:37;98869.66;;;12.18;53.46
59154;BME280;44935;48.944;9.418;2022-12-26T09:39:06;98870.33;;;11.99;53.56
59154;BME280;44935;48.944;9.418;2022-12-26T09:41:59;98878.93;;;11.99;53.64
59154;BME280;44935;48.944;9.418;2022-12-26T09:44:42;98878.02;;;12.14;53.25
59154;BME280;44935;48.944;9.418;2022-12-26T09:47:26;98879.25;;;12.01;53.71
59154;BME280;44935;48.944;9.418;2022-12-26T09:50:05;98891.27;;;11.63;55.23
59154;BME280;44935;48.944;9.418;2022-12-26T09:52:49;98895.52;;;11.14;56.48
59154;BME280;44935;48.944;9.418;2022-12-26T09:55:28;98896.67;;;11.12;56.07
59154;BME280;44935;48.944;9.418;2022-12-26T09:58:00;98907.23;;;11.48;56.54
59154;BME280;44935;48.944;9.418;2022-12-26T10:00:36;98903.41;;;11.05;57.36
59154;BME280;44935;48.944;9.418;2022-12-26T10:03:05;98902.69;;;11.51;56.14
59154;BME280;44935;48.944;9.418;2022-12-26T10:05:37;98901.56;;;11.03;57.54
59154;BME280;44935;48.944;9.418;2022-12-26T10:08:17;98901.61;;;11.13;57.09
59154;BME280;44935;48.944;9.418;2022-12-26T10:10:54;98907.56;;;10.88;57.37
59154;BME280;44935;48.944;9.418;2022-12-26T10:13:31;98912.97;;;10.26;59.02
59154;BME280;44935;48.944;9.418;2022-12-26T10:16:07;98915.09;;;10.48;59.58
59154;BME280;44935;48.944;9.418;2022-12-26T10:18:38;98912.23;;;10.57;58.95
59154;BME280;44935;48.944;9.418;2022-12-26T10:21:21;98912.98;;;11.04;57.99
59154;BME280;44935;48.944;9.418;2022-12-26T10:23:55;98895.27;;;11.44;57.38
59154;BME280;44935;48.944;9.418;2022-12-26T10:26:29;98891.95;;;11.67;55.65
59154;BME280;44935;48.944;9.418;2022-12-26T10:28:58;98897.87;;;11.73;55.29
59154;BME280;44935;48.944;9.418;2022-12-26T10:31:34;98897.47;;;11.83;55.19
59154;BME280;44935;48.944;9.418;2022-12-26T10:34:07;98900.50;;;11.62;55.73
59154;BME280;44935;48.944;9.418;2022-12-26T10:36:40;98900.39;;;11.13;57.18
59154;BME280;44935;48.944;9.418;2022-12-26T10:39:15;98903.47;;;10.91;58.13
59154;BME280;44935;48.944;9.418;2022-12-26T10:41:48;98904.86;;;10.98;58.12
59154;BME280;44935;48.944;9.418;2022-12-26T10:44:18;98912.51;;;10.88;58.11
59154;BME280;44935;48.944;9.418;2022-12-26T10:46:55;98915.01;;;10.55;58.92
59154;BME280;44935;48.944;9.418;2022-12-26T10:49:26;98913.86;;;11.60;56.90
59154;BME280;44935;48.944;9.418;2022-12-26T10:51:56;98908.69;;;11.37;56.88
59154;BME280;44935;48.944;9.418;2022-12-26T10:54:27;98915.69;;;11.11;57.16
59154;BME280;44935;48.944;9.418;2022-12-26T10:56:57;98927.70;;;10.83;58.24
59154;BME280;44935;48.944;9.418;2022-12-26T10:59:39;98926.24;;;10.57;58.40
59154;BME280;44935;48.944;9.418;2022-12-26T11:02:19;98929.01;;;10.33;59.39
59154;BME280;44935;48.944;9.418;2022-12-26T11:05:08;98933.29;;;11.05;58.04
59154;BME280;44935;48.944;9.418;2022-12-26T11:07:37;98936.79;;;11.46;56.70
59154;BME280;44935;48.944;9.418;2022-12-26T11:10:15;98927.40;;;12.25;55.39
59154;BME280;44935;48.944;9.418;2022-12-26T11:12:46;98921.36;;;12.08;54.99
59154;BME280;44935;48.944;9.418;2022-12-26T11:15:19;98918.55;;;12.43;54.23
59154;BME280;44935;48.944;9.418;2022-12-26T11:17:50;98898.92;;;12.55;53.94
59154;BME280;44935;48.944;9.418;2022-12-26T11:20:27;98903.73;;;12.86;53.33
59154;BME280;44935;48.944;9.418;2022-12-26T11:23:12;98901.81;;;12.96;52.38
59154;BME280;44935;48.944;9.418;2022-12-26T11:25:48;98907.79;;;13.03;51.93
59154;BME280;44935;48.944;9.418;2022-12-26T11:28:27;98897.95;;;12.88;51.85
59154;BME280;44935;48.944;9.418;2022-12-26T11:30:54;98882.17;;;13.07;51.37
59154;BME280;44935;48.944;9.418;2022-12-26T11:33:25;98867.62;;;12.85;51.90
59154;BME280;44935;48.944;9.418;2022-12-26T11:36:02;98876.25;;;13.30;51.39
59154;BME280;44935;48.944;9.418;2022-12-26T11:38:32;98874.43;;;13.37;51.12
59154;BME280;44935;48.944;9.418;2022-12-26T11:41:02;98860.73;;;13.01;51.13
59154;BME280;44935;48.944;9.418;2022-12-26T11:43:30;98878.44;;;12.91;51.19
59154;BME280;44935;48.944;9.418;2022-12-26T11:45:58;98885.74;;;11.95;53.97
59154;BME280;44935;48.944;9.418;2022-12-26T11:48:26;98883.20;;;11.83;54.79
59154;BME280;44935;48.944;9.418;2022-12-26T11:50:54;98885.36;;;11.97;55.46
59154;BME280;44935;48.944;9.418;2022-12-26T11:53:22;98875.77;;;12.34;55.35
59154;BME280;44935;48.944;9.418;2022-12-26T11:56:02;98899.24;;;11.62;55.94
59154;BME280;44935;48.944;9.418;2022-12-26T11:58:30;98907.59;;;11.73;56.14
59154;BME280;44935;48.944;9.418;2022-12-26T12:01:14;98897.44;;;11.72;56.49
59154;BME280;44935;48.944;9.418;2022-12-26T12:03:45;98882.85;;;12.62;54.25
59154;BME280;44935;48.944;9.418;2022-12-26T12:06:26;98879.07;;;12.66;53.09
59154;BME280;44935;48.944;9.418;2022-12-26T12:09:08;98885.82;;;12.80;52.61
59154;BME280;44935;48.944;9.418;2022-12-26T12:11:44;98889.75;;;13.25;51.82
59154;BME280;44935;48.944;9.418;2022-12-26T12:14:29;98891.43;;;13.13;52.03
59154;BME280;44935;48.944;9.418;2022-12-26T12:17:09;98881.53;;;12.74;52.40
59154;BME280;44935;48.944;9.418;2022-12-26T12:19:50;98871.07;;;10.49;57.72
59154;BME280;44935;48.944;9.418;2022-12-26T12:22:33;98868.84;;;9.70;61.19
59154;BME280;44935;48.944;9.418;2022-12-26T12:25:31;98868.64;;;12.25;54.59
59154;BME280;44935;48.944;9.418;2022-12-26T12:32:04;98881.34;;;13.70;51.48
59154;BME280;44935;48.944;9.418;2022-12-26T12:34:52;98877.05;;;13.63;50.21
59154;BME280;44935;48.944;9.418;2022-12-26T12:37:35;98869.32;;;13.83;50.19
59154;BME280;44935;48.944;9.418;2022-12-26T12:40:20;98866.18;;;13.62;50.60
59154;BME280;44935;48.944;9.418;2022-12-26T12:43:08;98871.87;;;13.24;50.74
59154;BME280;44935;48.944;9.418;2022-12-26T12:45:45;98870.50;;;13.18;51.67
59154;BME280;44935;48.944;9.418;2022-12-26T12:48:30;98871.85;;;13.02;51.84
59154;BME280;44935;48.944;9.418;2022-12-26T12:51:08;98871.72;;;13.06;51.21
59154;BME280;44935;48.944;9.418;2022-12-26T12:53:52;98867.49;;;13.48;50.86
59154;BME280;44935;48.944;9.418;2022-12-26T12:56:41;98867.02;;;13.51;50.72
59154;BME280;44935;48.944;9.418;2022-12-26T13:00:10;98876.62;;;12.96;51.33
59154;BME280;44935;48.944;9.418;2022-12-26T13:02:56;98882.02;;;12.43;52.00
59154;BME280;44935;48.944;9.418;2022-12-26T13:05:31;98879.66;;;12.67;51.71
59154;BME280;44935;48.944;9.418;2022-12-26T13:08:06;98875.95;;;12.82;52.01
59154;BME280;44935;48.944;9.418;2022-12-26T13:10:41;98880.28;;;13.25;51.45
59154;BME280;44935;48.944;9.418;2022-12-26T13:13:19;98878.11;;;13.45;50.95
59154;BME280;44935;48.944;9.418;2022-12-26T13:15:49;98877.46;;;13.11;50.45
59154;BME280;44935;48.944;9.418;2022-12-26T13:18:23;98873.20;;;13.42;50.51
59154;BME280;44935;48.944;9.418;2022-12-26T13:20:57;98873.14;;;13.26;50.23
59154;BME280;44935;48.944;9.418;2022-12-26T13:23:28;98874.88;;;13.70;50.15
59154;BME280;44935;48.944;9.418;2022-12-26T13:26:08;98867.38;;;13.43;50.14
59154;BME280;44935;48.944;9.418;2022-12-26T13:29:44;98863.95;;;13.15;50.29
59154;BME280;44935;48.944;9.418;2022-12-26T13:32:19;98856.67;;;12.49;52.56